createdAt,value
2023-05-22T00:02:00.313Z,42.70
2023-05-22T00:04:31.468Z,43.10
2023-05-22T00:07:02.445Z,44.08
2023-05-22T00:09:33.801Z,41.00
2023-05-22T00:12:04.824Z,44.47
2023-05-22T00:14:36.353Z,43.38
2023-05-22T00:17:07.995Z,55.67
2023-05-22T00:19:41.748Z,51.90
2023-05-22T00:22:14.351Z,57.45
2023-05-22T00:24:45.631Z,63.13
2023-05-22T00:27:16.064Z,54.83
2023-05-22T00:29:49.645Z,45.65
2023-05-22T00:32:20.342Z,43.33
2023-05-22T00:34:51.961Z,41.50
2023-05-22T00:37:22.423Z,43.67
2023-05-22T00:39:54.620Z,63.13
2023-05-22T00:42:26.083Z,63.95
2023-05-22T00:44:58.339Z,64.68
2023-05-22T00:47:29.921Z,61.72
2023-05-22T00:50:01.696Z,44.42
2023-05-22T00:52:32.859Z,38.30
2023-05-22T00:55:05.293Z,34.88
2023-05-22T00:57:36.978Z,32.17
2023-05-22T01:00:12.716Z,31.98
2023-05-22T01:02:44.540Z,34.42
2023-05-22T01:05:19.708Z,42.38
2023-05-22T01:07:51.024Z,36.42
2023-05-22T01:10:22.227Z,36.90
2023-05-22T01:13:11.483Z,38.92
2023-05-22T01:15:55.301Z,33.40
2023-05-22T01:19:04.661Z,41.67
2023-05-22T01:21:38.721Z,55.63
2023-05-22T01:24:53.274Z,38.40
2023-05-22T01:28:02.503Z,31.23
2023-05-22T01:31:03.516Z,45.53
2023-05-22T01:33:41.896Z,35.53
2023-05-22T01:36:13.992Z,36.20
2023-05-22T01:38:45.506Z,37.40
2023-05-22T01:41:15.777Z,37.08
2023-05-22T01:43:47.646Z,44.72
2023-05-22T01:46:18.044Z,38.33
2023-05-22T01:48:48.637Z,42.33
2023-05-22T01:51:40.059Z,37.15
2023-05-22T01:54:48.228Z,41.40
2023-05-22T01:57:28.963Z,40.95
2023-05-22T02:00:10.942Z,39.45
2023-05-22T02:03:00.121Z,44.20
2023-05-22T02:05:34.630Z,45.00
2023-05-22T02:08:05.945Z,44.58
2023-05-22T02:10:38.226Z,53.53
2023-05-22T02:13:12.903Z,51.10
2023-05-22T02:15:46.880Z,41.58
2023-05-22T02:18:17.567Z,25.60
2023-05-22T02:20:48.349Z,31.20
2023-05-22T02:23:18.550Z,33.40
2023-05-22T02:25:48.964Z,27.90
2023-05-22T02:28:19.129Z,22.38
2023-05-22T02:30:49.756Z,23.50
2023-05-22T02:33:19.887Z,25.77
2023-05-22T02:35:52.451Z,24.02
2023-05-22T02:38:22.389Z,24.08
2023-05-22T02:40:52.849Z,28.75
2023-05-22T02:43:23.787Z,27.58
2023-05-22T02:45:54.571Z,26.05
2023-05-22T02:48:24.591Z,25.25
2023-05-22T02:50:54.647Z,30.73
2023-05-22T02:53:25.013Z,43.45
2023-05-22T02:55:55.682Z,54.03
2023-05-22T02:58:26.890Z,46.80
2023-05-22T03:00:57.287Z,44.28
2023-05-22T03:03:27.840Z,40.45
2023-05-22T03:05:59.540Z,37.75
2023-05-22T03:08:30.197Z,38.08
2023-05-22T03:11:01.983Z,40.35
2023-05-22T03:13:32.336Z,42.67
2023-05-22T03:16:02.505Z,43.58
2023-05-22T03:18:33.308Z,42.38
2023-05-22T03:21:03.270Z,47.03
2023-05-22T03:23:33.875Z,43.67
2023-05-22T03:26:03.913Z,40.45
2023-05-22T03:28:37.509Z,41.35
2023-05-22T03:31:10.420Z,41.97
2023-05-22T03:33:57.632Z,49.38
2023-05-22T03:36:28.267Z,50.42
2023-05-22T03:38:59.369Z,44.15
2023-05-22T03:41:29.870Z,48.63
2023-05-22T03:44:00.414Z,48.75
2023-05-22T03:46:30.584Z,48.75
2023-05-22T03:49:01.577Z,51.97
2023-05-22T03:51:32.616Z,49.17
2023-05-22T03:54:03.276Z,51.75
2023-05-22T03:56:33.350Z,48.08
2023-05-22T03:59:05.257Z,49.67
2023-05-22T04:01:35.786Z,47.20
2023-05-22T04:04:06.980Z,40.22
2023-05-22T04:06:44.211Z,45.28
2023-05-22T04:09:16.413Z,38.15
2023-05-22T04:11:47.569Z,37.47
2023-05-22T04:14:18.787Z,33.83
2023-05-22T04:16:50.435Z,33.80
2023-05-22T04:19:21.217Z,32.60
2023-05-22T04:21:51.207Z,32.97
2023-05-22T04:24:22.119Z,30.80
2023-05-22T04:26:52.040Z,32.60
2023-05-22T04:29:23.926Z,33.67
2023-05-22T04:31:55.553Z,30.38
2023-05-22T04:34:27.489Z,31.33
2023-05-22T04:36:57.558Z,26.10
2023-05-22T04:39:27.965Z,23.67
2023-05-22T04:41:59.468Z,25.83
2023-05-22T04:44:31.541Z,23.67
2023-05-22T04:47:03.241Z,21.88
2023-05-22T04:49:35.012Z,19.58
2023-05-22T04:52:05.879Z,19.73
2023-05-22T04:54:37.794Z,23.67
2023-05-22T04:57:08.612Z,22.13
2023-05-22T04:59:42.626Z,21.02
2023-05-22T05:02:12.778Z,22.33
2023-05-22T05:04:44.746Z,23.02
2023-05-22T05:07:18.724Z,23.77
2023-05-22T05:09:49.303Z,23.60
2023-05-22T05:12:19.343Z,24.30
2023-05-22T05:14:49.905Z,21.45
2023-05-22T05:17:19.841Z,22.77
2023-05-22T05:19:50.221Z,23.42
2023-05-22T05:22:20.532Z,26.70
2023-05-22T05:24:51.026Z,27.70
2023-05-22T05:27:21.214Z,25.23
2023-05-22T05:29:51.956Z,22.70
2023-05-22T05:32:29.008Z,21.70
2023-05-22T05:35:18.338Z,24.55
2023-05-22T05:37:52.843Z,27.92
2023-05-22T05:40:23.456Z,25.20
2023-05-22T05:42:54.728Z,26.90
2023-05-22T05:45:28.071Z,26.83
2023-05-22T05:47:59.050Z,23.20
2023-05-22T05:50:29.727Z,23.75
2023-05-22T05:52:59.805Z,24.15
2023-05-22T05:55:31.479Z,23.48
2023-05-22T05:58:02.746Z,22.30
2023-05-22T06:00:43.514Z,24.58
2023-05-22T06:03:13.613Z,24.27
2023-05-22T06:06:00.667Z,23.95
2023-05-22T06:08:56.275Z,26.30
2023-05-22T06:11:33.674Z,24.33
2023-05-22T06:14:05.816Z,21.33
2023-05-22T06:16:36.436Z,21.13
2023-05-22T06:19:06.620Z,19.63
2023-05-22T06:21:37.049Z,18.27
2023-05-22T06:24:07.486Z,23.02
2023-05-22T06:26:38.009Z,22.38
2023-05-22T06:29:07.928Z,22.27
2023-05-22T06:31:40.379Z,23.55
2023-05-22T06:34:11.277Z,23.27
2023-05-22T06:36:41.950Z,19.30
2023-05-22T06:39:12.216Z,24.08
2023-05-22T06:42:10.125Z,23.83
2023-05-22T06:45:12.657Z,14.00
2023-05-22T06:47:56.108Z,14.07
2023-05-22T06:50:27.164Z,14.40
2023-05-22T06:52:58.831Z,13.75
2023-05-22T06:55:29.095Z,15.07
2023-05-22T06:58:10.458Z,17.73
2023-05-22T07:00:40.787Z,18.33
2023-05-22T07:03:22.660Z,17.52
2023-05-22T07:06:13.336Z,18.42
2023-05-22T07:08:43.750Z,18.20
2023-05-22T07:11:13.958Z,15.23
2023-05-22T07:13:44.336Z,14.48
2023-05-22T07:16:16.171Z,15.18
2023-05-22T07:18:47.624Z,13.15
2023-05-22T07:21:17.720Z,13.07
2023-05-22T07:23:48.226Z,13.43
2023-05-22T07:26:18.301Z,14.70
2023-05-22T07:28:55.965Z,15.30
2023-05-22T07:31:25.996Z,16.55
2023-05-22T07:33:58.107Z,17.13
2023-05-22T07:36:29.676Z,15.20
2023-05-22T07:39:00.249Z,16.50
2023-05-22T07:41:30.345Z,15.18
2023-05-22T07:44:01.018Z,14.02
2023-05-22T07:46:36.605Z,15.18
2023-05-22T07:49:13.835Z,14.75
2023-05-22T07:51:44.862Z,14.98
2023-05-22T07:54:15.927Z,15.05
2023-05-22T07:56:48.892Z,16.25
2023-05-22T08:01:54.196Z,14.20
2023-05-22T08:04:24.863Z,15.43
2023-05-22T08:06:54.885Z,15.63
2023-05-22T08:09:25.625Z,15.27
2023-05-22T08:11:55.606Z,15.20
2023-05-22T08:14:25.992Z,14.63
2023-05-22T08:16:56.052Z,14.27
2023-05-22T08:19:27.064Z,15.35
2023-05-22T08:21:59.229Z,16.00
2023-05-22T08:24:30.940Z,14.60
2023-05-22T08:27:01.748Z,14.32
2023-05-22T08:29:32.208Z,13.90
2023-05-22T08:32:02.278Z,14.63
2023-05-22T08:34:33.650Z,14.63
2023-05-22T08:37:03.674Z,13.23
2023-05-22T08:39:34.368Z,11.60
2023-05-22T08:42:04.498Z,10.65
2023-05-22T08:44:34.973Z,11.88
2023-05-22T08:47:15.185Z,11.38
2023-05-22T08:49:46.586Z,11.85
2023-05-22T08:52:39.940Z,13.73
2023-05-22T08:55:10.891Z,13.30
2023-05-22T08:57:41.587Z,13.52
2023-05-22T09:00:12.554Z,13.82
2023-05-22T09:02:43.627Z,14.73
2023-05-22T09:05:14.548Z,14.75
2023-05-22T09:07:45.073Z,14.57
2023-05-22T09:10:15.583Z,15.90
2023-05-22T09:13:10.325Z,14.10
2023-05-22T09:15:40.763Z,13.25
2023-05-22T09:18:10.708Z,14.40
2023-05-22T09:20:41.470Z,14.85
2023-05-22T09:23:23.661Z,15.32
2023-05-22T09:25:59.290Z,15.23
2023-05-22T09:28:34.752Z,15.77
2023-05-22T09:31:07.342Z,15.98
2023-05-22T09:33:41.219Z,15.05
2023-05-22T09:36:12.127Z,16.58
2023-05-22T09:38:42.711Z,15.68
2023-05-22T09:41:13.113Z,15.35
2023-05-22T09:43:52.396Z,15.43
2023-05-22T09:46:23.164Z,13.88
2023-05-22T09:48:56.411Z,13.80
2023-05-22T09:51:28.579Z,13.55
2023-05-22T09:54:08.930Z,13.43
2023-05-22T09:56:41.935Z,13.55
2023-05-22T10:01:46.908Z,13.55
2023-05-22T10:04:19.868Z,12.32
2023-05-22T10:06:54.320Z,12.98
2023-05-22T10:09:27.767Z,13.10
2023-05-22T10:12:05.383Z,11.93
2023-05-22T10:14:37.361Z,9.88
2023-05-22T10:17:11.302Z,9.18
2023-05-22T10:19:43.911Z,8.88
2023-05-22T10:22:21.939Z,8.70
2023-05-22T10:24:53.297Z,9.50
2023-05-22T10:27:23.697Z,9.98
2023-05-22T10:30:05.035Z,9.65
2023-05-22T10:32:56.012Z,9.15
2023-05-22T10:35:53.995Z,8.75
2023-05-22T10:38:42.524Z,11.23
2023-05-22T10:41:12.720Z,10.70
2023-05-22T10:43:47.509Z,10.68
2023-05-22T10:46:17.730Z,14.50
2023-05-22T10:48:50.495Z,12.25
2023-05-22T10:51:22.638Z,13.55
2023-05-22T10:54:11.246Z,15.20
2023-05-22T10:56:41.699Z,22.05
2023-05-22T10:59:12.084Z,22.67
2023-05-22T11:01:42.146Z,23.48
2023-05-22T11:04:20.232Z,17.98
2023-05-22T11:07:06.023Z,15.93
2023-05-22T11:09:45.263Z,19.40
2023-05-22T11:12:23.604Z,18.45
2023-05-22T11:15:07.598Z,17.67
2023-05-22T11:17:47.774Z,16.35
2023-05-22T11:20:22.657Z,15.05
2023-05-22T11:23:09.899Z,15.48
2023-05-22T11:25:42.588Z,15.38
2023-05-22T11:28:13.437Z,14.15
2023-05-22T11:30:44.849Z,15.15
2023-05-22T11:33:16.100Z,14.43
2023-05-22T11:35:52.839Z,13.10
2023-05-22T11:38:23.707Z,14.48
2023-05-22T11:40:54.414Z,13.48
2023-05-22T11:43:34.269Z,11.15
2023-05-22T11:46:09.241Z,11.15
2023-05-22T11:48:43.164Z,9.77
2023-05-22T11:51:13.942Z,9.70
2023-05-22T11:53:43.897Z,10.13
2023-05-22T11:56:14.276Z,9.70
2023-05-22T11:58:44.197Z,10.13
2023-05-22T12:01:14.081Z,9.85
2023-05-22T12:03:44.676Z,10.00
2023-05-22T12:06:17.773Z,9.07
2023-05-22T12:08:48.389Z,8.48
2023-05-22T12:11:18.803Z,8.98
2023-05-22T12:13:53.189Z,8.55
2023-05-22T12:16:23.964Z,9.13
2023-05-22T12:18:55.603Z,9.13
2023-05-22T12:21:25.600Z,9.25
2023-05-22T12:23:57.028Z,9.93
2023-05-22T12:26:27.002Z,9.80
2023-05-22T12:28:57.454Z,10.43
2023-05-22T12:31:27.823Z,10.18
2023-05-22T12:33:58.974Z,10.60
2023-05-22T12:36:41.239Z,11.00
2023-05-22T12:39:13.095Z,9.98
2023-05-22T12:41:43.136Z,9.75
2023-05-22T12:44:14.124Z,10.15
2023-05-22T12:46:44.413Z,9.93
2023-05-22T12:49:14.857Z,9.15
2023-05-22T12:51:45.474Z,10.80
2023-05-22T12:54:16.516Z,9.80
2023-05-22T12:56:46.597Z,10.20
2023-05-22T12:59:18.004Z,10.70
2023-05-22T13:04:19.248Z,11.18
2023-05-22T13:06:49.593Z,10.10
2023-05-22T13:09:20.154Z,9.75
2023-05-22T13:11:50.631Z,10.13
2023-05-22T13:14:27.466Z,9.43
2023-05-22T13:16:57.902Z,10.35
2023-05-22T13:19:28.212Z,9.45
2023-05-22T13:21:58.752Z,10.43
2023-05-22T13:24:28.750Z,10.32
2023-05-22T13:26:59.138Z,9.93
2023-05-22T13:29:29.129Z,9.70
2023-05-22T13:31:59.527Z,10.32
2023-05-22T13:34:30.305Z,11.13
2023-05-22T13:37:00.918Z,10.35
2023-05-22T13:39:31.515Z,11.13
2023-05-22T13:42:01.879Z,10.82
2023-05-22T13:44:32.248Z,11.07
2023-05-22T13:47:02.286Z,11.07
2023-05-22T13:49:32.751Z,10.85
2023-05-22T13:52:02.875Z,10.48
2023-05-22T13:54:33.279Z,11.32
2023-05-22T13:57:03.734Z,12.27
2023-05-22T13:59:34.371Z,13.02
2023-05-22T14:02:04.443Z,13.07
2023-05-22T14:04:35.962Z,14.38
2023-05-22T14:07:06.147Z,14.35
2023-05-22T14:09:37.197Z,14.38
2023-05-22T14:12:07.458Z,13.88
2023-05-22T14:14:37.846Z,14.75
2023-05-22T14:17:10.132Z,12.13
2023-05-22T14:19:41.087Z,11.68
2023-05-22T14:22:11.122Z,13.27
2023-05-22T14:24:41.487Z,11.90
2023-05-22T14:27:11.281Z,11.38
2023-05-22T14:29:41.828Z,10.65
2023-05-22T14:32:11.862Z,10.48
2023-05-22T14:34:42.500Z,9.38
2023-05-22T14:37:12.526Z,10.00
2023-05-22T14:39:42.925Z,9.55
2023-05-22T14:42:12.937Z,9.80
2023-05-22T14:44:43.376Z,9.23
2023-05-22T14:47:13.751Z,8.55
2023-05-22T14:49:44.126Z,8.63
2023-05-22T14:52:14.761Z,8.70
2023-05-22T14:54:45.140Z,9.38
2023-05-22T14:57:15.601Z,8.98
2023-05-22T14:59:46.027Z,9.43
2023-05-22T15:02:16.335Z,8.05
2023-05-22T15:04:47.424Z,8.00
2023-05-22T15:07:17.437Z,8.43
2023-05-22T15:09:47.852Z,7.43
2023-05-22T15:12:17.870Z,7.63
2023-05-22T15:14:48.245Z,7.25
2023-05-22T15:17:18.316Z,7.28
2023-05-22T15:19:49.919Z,7.00
2023-05-22T15:22:20.235Z,7.10
2023-05-22T15:25:03.840Z,7.50
2023-05-22T15:27:36.234Z,7.50
2023-05-22T15:30:07.886Z,7.50
2023-05-22T15:32:38.680Z,6.60
2023-05-22T15:35:10.366Z,7.65
2023-05-22T15:37:40.574Z,6.95
2023-05-22T15:40:12.380Z,6.95
2023-05-22T15:42:42.365Z,7.15
2023-05-22T15:45:12.875Z,7.10
2023-05-22T15:47:43.988Z,6.63
2023-05-22T15:50:14.354Z,7.00
2023-05-22T15:52:44.344Z,7.00
2023-05-22T15:55:14.692Z,6.78
2023-05-22T15:57:44.487Z,6.45
2023-05-22T16:00:17.036Z,5.78
2023-05-22T16:02:48.497Z,5.82
2023-05-22T16:05:18.936Z,6.30
2023-05-22T16:07:48.947Z,6.43
2023-05-22T16:10:19.906Z,6.45
2023-05-22T16:12:49.894Z,6.93
2023-05-22T16:15:20.340Z,7.20
2023-05-22T16:17:50.488Z,6.90
2023-05-22T16:20:22.503Z,7.03
2023-05-22T16:22:53.060Z,6.93
2023-05-22T16:25:23.908Z,6.78
2023-05-22T16:27:54.023Z,6.90
2023-05-22T16:30:23.894Z,7.07
2023-05-22T16:32:54.292Z,6.25
2023-05-22T16:35:24.671Z,5.88
2023-05-22T16:37:55.331Z,6.13
2023-05-22T16:40:25.227Z,6.82
2023-05-22T16:42:55.640Z,6.22
2023-05-22T16:45:25.747Z,5.90
2023-05-22T16:47:56.328Z,6.20
2023-05-22T16:50:26.391Z,6.43
2023-05-22T16:52:56.819Z,6.25
2023-05-22T16:55:26.817Z,5.82
2023-05-22T16:57:57.179Z,6.13
2023-05-22T17:00:27.179Z,6.25
2023-05-22T17:02:57.744Z,6.30
2023-05-22T17:05:28.653Z,6.10
2023-05-22T17:07:59.082Z,6.25
2023-05-22T17:10:29.723Z,6.38
2023-05-22T17:13:00.251Z,6.03
2023-05-22T17:15:30.281Z,5.88
2023-05-22T17:18:00.764Z,6.55
2023-05-22T17:20:30.884Z,6.50
2023-05-22T17:23:01.321Z,6.40
2023-05-22T17:25:31.497Z,6.85
2023-05-22T17:28:01.910Z,6.03
2023-05-22T17:30:31.938Z,5.95
2023-05-22T17:33:04.657Z,6.10
2023-05-22T17:38:04.577Z,6.28
2023-05-22T17:40:43.817Z,6.75
2023-05-22T17:43:15.906Z,6.28
2023-05-22T17:45:50.719Z,7.10
2023-05-22T17:48:24.697Z,6.57
2023-05-22T17:50:55.134Z,6.63
2023-05-22T17:53:25.579Z,6.25
2023-05-22T17:55:55.594Z,6.00
2023-05-22T17:58:26.198Z,6.38
2023-05-22T18:00:56.022Z,5.97
2023-05-22T18:03:27.402Z,6.65
2023-05-22T18:05:57.454Z,6.47
2023-05-22T18:08:27.860Z,6.03
2023-05-22T18:10:59.265Z,6.32
2023-05-22T18:13:29.648Z,5.78
2023-05-22T18:16:00.658Z,6.13
2023-05-22T18:18:31.105Z,5.93
2023-05-22T18:21:01.173Z,6.72
2023-05-22T18:23:31.832Z,6.32
2023-05-22T18:26:02.258Z,6.32
2023-05-22T18:28:32.788Z,6.32
2023-05-22T18:31:05.187Z,6.60
2023-05-22T18:33:35.692Z,5.70
2023-05-22T18:36:06.548Z,6.13
2023-05-22T18:38:36.563Z,6.15
2023-05-22T18:41:08.327Z,6.90
2023-05-22T18:43:38.384Z,6.65
2023-05-22T18:46:08.189Z,6.72
2023-05-22T18:48:38.646Z,7.00
2023-05-22T18:51:08.565Z,6.53
2023-05-22T18:53:38.982Z,6.93
2023-05-22T18:56:08.948Z,6.63
2023-05-22T18:58:42.578Z,5.80
2023-05-22T19:01:12.659Z,6.35
2023-05-22T19:03:43.099Z,6.70
2023-05-22T19:06:13.936Z,6.20
2023-05-22T19:08:44.413Z,6.85
2023-05-22T19:11:14.174Z,7.53
2023-05-22T19:13:45.881Z,6.43
2023-05-22T19:16:16.457Z,6.60
2023-05-22T19:18:47.246Z,6.80
2023-05-22T19:21:17.228Z,6.88
2023-05-22T19:23:48.239Z,6.90
2023-05-22T19:26:18.271Z,7.32
2023-05-22T19:28:48.711Z,7.43
2023-05-22T19:31:18.740Z,6.68
2023-05-22T19:33:49.278Z,7.68
2023-05-22T19:36:19.361Z,7.00
2023-05-22T19:38:51.815Z,7.63
2023-05-22T19:41:24.018Z,7.45
2023-05-22T19:43:54.462Z,7.18
2023-05-22T19:46:24.302Z,7.82
2023-05-22T19:48:54.997Z,7.72
2023-05-22T19:51:24.988Z,7.00
2023-05-22T19:53:55.373Z,6.88
2023-05-22T19:56:25.329Z,7.90
2023-05-22T19:58:55.762Z,7.68
2023-05-22T20:01:25.839Z,8.10
2023-05-22T20:03:57.105Z,8.27
2023-05-22T20:06:31.319Z,7.72
2023-05-22T20:09:06.960Z,8.13
2023-05-22T20:11:37.576Z,8.63
2023-05-22T20:14:08.817Z,8.43
2023-05-22T20:16:38.905Z,8.98
2023-05-22T20:19:10.267Z,9.20
2023-05-22T20:21:40.435Z,8.30
2023-05-22T20:24:18.558Z,8.15
2023-05-22T20:26:49.282Z,8.35
2023-05-22T20:29:19.965Z,8.45
2023-05-22T20:31:50.202Z,7.75
2023-05-22T20:34:21.713Z,9.07
2023-05-22T20:36:51.660Z,9.15
2023-05-22T20:39:23.564Z,8.20
2023-05-22T20:41:54.122Z,9.43
2023-05-22T20:44:25.771Z,9.57
2023-05-22T20:46:55.773Z,9.30
2023-05-22T20:49:27.186Z,9.45
2023-05-22T20:51:57.320Z,10.13
2023-05-22T20:54:27.866Z,11.30
2023-05-22T20:56:58.160Z,10.35
2023-05-22T20:59:30.081Z,11.00
2023-05-22T21:02:00.191Z,10.93
2023-05-22T21:04:30.657Z,9.52
2023-05-22T21:07:00.653Z,9.43
2023-05-22T21:09:31.046Z,10.02
2023-05-22T21:12:01.032Z,9.32
2023-05-22T21:14:31.539Z,10.13
2023-05-22T21:17:01.600Z,10.57
2023-05-22T21:19:32.256Z,10.23
2023-05-22T21:22:02.253Z,10.15
2023-05-22T21:24:33.790Z,10.13
2023-05-22T21:27:03.744Z,10.02
2023-05-22T21:29:34.190Z,10.13
2023-05-22T21:32:04.206Z,10.15
2023-05-22T21:34:34.624Z,10.23
2023-05-22T21:37:05.148Z,11.43
2023-05-22T21:39:35.102Z,11.43
2023-05-22T21:42:05.740Z,12.13
2023-05-22T21:44:35.702Z,11.13
2023-05-22T21:47:06.297Z,10.95
2023-05-22T21:49:38.745Z,10.88
2023-05-22T21:52:09.933Z,10.65
2023-05-22T21:54:40.633Z,12.10
2023-05-22T21:57:11.153Z,20.45
2023-05-22T21:59:41.325Z,19.88
2023-05-22T22:02:11.868Z,15.57
2023-05-22T22:04:41.874Z,12.70
2023-05-22T22:07:11.871Z,13.13
2023-05-22T22:09:42.223Z,12.10
2023-05-22T22:12:12.202Z,13.30
2023-05-22T22:14:42.610Z,14.55
2023-05-22T22:17:12.556Z,14.23
2023-05-22T22:19:43.043Z,13.52
2023-05-22T22:22:13.614Z,15.70
2023-05-22T22:24:44.508Z,14.32
2023-05-22T22:27:15.377Z,16.25
2023-05-22T22:29:45.927Z,15.50
2023-05-22T22:32:15.969Z,13.82
2023-05-22T22:34:46.580Z,14.07
2023-05-22T22:37:16.674Z,13.25
2023-05-22T22:39:47.220Z,11.80
2023-05-22T22:42:17.252Z,11.90
2023-05-22T22:44:47.751Z,10.85
2023-05-22T22:47:18.941Z,10.70
2023-05-22T22:49:51.252Z,12.20
2023-05-22T22:52:21.465Z,11.50
2023-05-22T22:54:52.045Z,11.32
2023-05-22T22:57:22.082Z,11.68
2023-05-22T22:59:52.629Z,11.43
2023-05-22T23:02:23.008Z,11.82
2023-05-22T23:04:57.002Z,12.43
2023-05-22T23:07:27.415Z,14.65
2023-05-22T23:09:58.182Z,14.63
2023-05-22T23:12:29.012Z,13.38
2023-05-22T23:14:59.304Z,14.30
2023-05-22T23:17:30.372Z,14.50
2023-05-22T23:20:00.983Z,14.98
2023-05-22T23:22:32.225Z,15.50
2023-05-22T23:25:02.946Z,14.82
2023-05-22T23:27:33.594Z,14.30
2023-05-22T23:30:07.576Z,15.02
2023-05-22T23:32:38.925Z,16.58
2023-05-22T23:35:10.985Z,17.25
2023-05-22T23:40:11.503Z,17.77
2023-05-22T23:42:42.502Z,14.73
2023-05-22T23:45:13.619Z,12.98
2023-05-22T23:47:44.426Z,11.82
2023-05-22T23:50:14.866Z,11.10
2023-05-22T23:52:45.383Z,10.93
2023-05-22T23:55:16.235Z,10.45
2023-05-22T23:57:48.102Z,12.27
